sensor_id;sensor_type;location;lat;lon;timestamp;temperature;humidity
46490;DHT22;32204;49.160;8.580;2022-07-25T00:00:34;23.30;1.00
46490;DHT22;32204;49.160;8.580;2022-07-25T00:03:00;23.40;99.90
46490;DHT22;32204;49.160;8.580;2022-07-25T00:05:25;23.40;1.00
46490;DHT22;32204;49.160;8.580;2022-07-25T00:07:51;23.40;1.00
46490;DHT22;32204;49.160;8.580;2022-07-25T00:10:17;23.40;99.90
46490;DHT22;32204;49.160;8.580;2022-07-25T00:12:42;23.40;99.90
46490;DHT22;32204;49.160;8.580;2022-07-25T00:15:08;23.30;99.90
46490;DHT22;32204;49.160;8.580;2022-07-25T00:17:34;23.20;99.90
46490;DHT22;32204;49.160;8.580;2022-07-25T00:20:00;23.20;99.90
46490;DHT22;32204;49.160;8.580;2022-07-25T00:22:26;23.20;99.90
46490;DHT22;32204;49.160;8.580;2022-07-25T00:24:51;23.20;99.90
46490;DHT22;32204;49.160;8.580;2022-07-25T00:27:17;23.10;99.90
46490;DHT22;32204;49.160;8.580;2022-07-25T00:29:43;23.00;99.90
46490;DHT22;32204;49.160;8.580;2022-07-25T00:32:08;22.90;1.00
46490;DHT22;32204;49.160;8.580;2022-07-25T00:34:34;22.80;1.00
46490;DHT22;32204;49.160;8.580;2022-07-25T00:37:00;22.80;1.00
46490;DHT22;32204;49.160;8.580;2022-07-25T00:39:25;22.90;1.00
46490;DHT22;32204;49.160;8.580;2022-07-25T00:41:51;23.00;1.00
46490;DHT22;32204;49.160;8.580;2022-07-25T00:44:26;23.00;1.00
46490;DHT22;32204;49.160;8.580;2022-07-25T00:46:53;23.00;1.00
46490;DHT22;32204;49.160;8.580;2022-07-25T00:49:19;23.00;99.90
46490;DHT22;32204;49.160;8.580;2022-07-25T00:51:45;23.10;1.00
46490;DHT22;32204;49.160;8.580;2022-07-25T00:54:12;23.30;1.00
46490;DHT22;32204;49.160;8.580;2022-07-25T00:56:38;23.30;99.90
46490;DHT22;32204;49.160;8.580;2022-07-25T00:59:04;23.30;99.90
46490;DHT22;32204;49.160;8.580;2022-07-25T01:01:30;23.50;99.90
46490;DHT22;32204;49.160;8.580;2022-07-25T01:03:55;23.50;99.90
46490;DHT22;32204;49.160;8.580;2022-07-25T01:06:21;23.50;99.90
46490;DHT22;32204;49.160;8.580;2022-07-25T01:08:48;23.50;99.90
46490;DHT22;32204;49.160;8.580;2022-07-25T01:11:13;23.60;99.90
46490;DHT22;32204;49.160;8.580;2022-07-25T01:13:39;23.60;99.90
46490;DHT22;32204;49.160;8.580;2022-07-25T01:16:05;23.70;99.90
46490;DHT22;32204;49.160;8.580;2022-07-25T01:18:31;23.60;99.90
46490;DHT22;32204;49.160;8.580;2022-07-25T01:20:59;23.60;99.90
46490;DHT22;32204;49.160;8.580;2022-07-25T01:23:25;23.60;99.90
46490;DHT22;32204;49.160;8.580;2022-07-25T01:25:50;23.60;99.90
46490;DHT22;32204;49.160;8.580;2022-07-25T01:28:16;23.70;99.90
46490;DHT22;32204;49.160;8.580;2022-07-25T01:30:42;23.70;99.90
46490;DHT22;32204;49.160;8.580;2022-07-25T01:33:08;23.60;99.90
46490;DHT22;32204;49.160;8.580;2022-07-25T01:35:34;23.60;99.90
46490;DHT22;32204;49.160;8.580;2022-07-25T01:37:59;23.70;99.90
46490;DHT22;32204;49.160;8.580;2022-07-25T01:40:25;23.70;99.90
46490;DHT22;32204;49.160;8.580;2022-07-25T01:42:51;23.70;99.90
46490;DHT22;32204;49.160;8.580;2022-07-25T01:45:17;23.60;99.90
46490;DHT22;32204;49.160;8.580;2022-07-25T01:47:42;23.70;99.90
46490;DHT22;32204;49.160;8.580;2022-07-25T01:50:08;23.70;99.90
46490;DHT22;32204;49.160;8.580;2022-07-25T01:52:36;23.70;99.90
46490;DHT22;32204;49.160;8.580;2022-07-25T01:55:01;23.80;99.90
46490;DHT22;32204;49.160;8.580;2022-07-25T01:57:27;23.70;99.90
46490;DHT22;32204;49.160;8.580;2022-07-25T01:59:53;23.60;99.90
46490;DHT22;32204;49.160;8.580;2022-07-25T02:02:19;23.50;99.90
46490;DHT22;32204;49.160;8.580;2022-07-25T02:04:44;23.40;99.90
46490;DHT22;32204;49.160;8.580;2022-07-25T02:07:10;23.40;99.90
46490;DHT22;32204;49.160;8.580;2022-07-25T02:09:35;23.50;99.90
46490;DHT22;32204;49.160;8.580;2022-07-25T02:12:01;23.50;99.90
46490;DHT22;32204;49.160;8.580;2022-07-25T02:14:27;23.50;99.90
46490;DHT22;32204;49.160;8.580;2022-07-25T02:16:52;23.40;99.90
46490;DHT22;32204;49.160;8.580;2022-07-25T02:19:18;23.20;99.90
46490;DHT22;32204;49.160;8.580;2022-07-25T02:21:44;23.20;99.90
46490;DHT22;32204;49.160;8.580;2022-07-25T02:24:09;23.20;99.90
46490;DHT22;32204;49.160;8.580;2022-07-25T02:26:35;23.10;99.90
46490;DHT22;32204;49.160;8.580;2022-07-25T02:29:01;23.10;99.90
46490;DHT22;32204;49.160;8.580;2022-07-25T02:31:27;23.00;99.90
46490;DHT22;32204;49.160;8.580;2022-07-25T02:33:52;23.00;99.90
46490;DHT22;32204;49.160;8.580;2022-07-25T02:36:18;23.00;99.90
46490;DHT22;32204;49.160;8.580;2022-07-25T02:38:43;23.00;99.90
46490;DHT22;32204;49.160;8.580;2022-07-25T02:41:09;22.80;99.90
46490;DHT22;32204;49.160;8.580;2022-07-25T02:43:35;22.80;99.90
46490;DHT22;32204;49.160;8.580;2022-07-25T02:46:01;22.90;1.00
46490;DHT22;32204;49.160;8.580;2022-07-25T02:48:27;22.80;1.00
46490;DHT22;32204;49.160;8.580;2022-07-25T02:50:52;23.00;99.90
46490;DHT22;32204;49.160;8.580;2022-07-25T02:53:18;23.00;1.00
46490;DHT22;32204;49.160;8.580;2022-07-25T02:55:44;22.90;99.90
46490;DHT22;32204;49.160;8.580;2022-07-25T02:58:09;22.90;1.00
46490;DHT22;32204;49.160;8.580;2022-07-25T03:00:35;22.90;1.00
46490;DHT22;32204;49.160;8.580;2022-07-25T03:03:02;23.00;1.00
46490;DHT22;32204;49.160;8.580;2022-07-25T03:05:27;22.80;1.00
46490;DHT22;32204;49.160;8.580;2022-07-25T03:07:53;22.70;99.90
46490;DHT22;32204;49.160;8.580;2022-07-25T03:10:19;22.70;1.00
46490;DHT22;32204;49.160;8.580;2022-07-25T03:12:45;22.50;1.00
46490;DHT22;32204;49.160;8.580;2022-07-25T03:15:11;22.40;1.00
46490;DHT22;32204;49.160;8.580;2022-07-25T03:17:37;22.10;1.00
46490;DHT22;32204;49.160;8.580;2022-07-25T03:20:04;21.90;1.00
46490;DHT22;32204;49.160;8.580;2022-07-25T03:22:31;21.70;1.00
46490;DHT22;32204;49.160;8.580;2022-07-25T03:24:56;21.70;10.90
46490;DHT22;32204;49.160;8.580;2022-07-25T03:27:22;21.60;99.00
46490;DHT22;32204;49.160;8.580;2022-07-25T03:29:48;21.70;50.50
46490;DHT22;32204;49.160;8.580;2022-07-25T03:32:13;21.90;63.70
46490;DHT22;32204;49.160;8.580;2022-07-25T03:34:39;22.10;6.30
46490;DHT22;32204;49.160;8.580;2022-07-25T03:37:05;22.30;1.00
46490;DHT22;32204;49.160;8.580;2022-07-25T03:39:30;22.30;1.00
46490;DHT22;32204;49.160;8.580;2022-07-25T03:41:56;22.40;1.00
46490;DHT22;32204;49.160;8.580;2022-07-25T03:44:23;22.40;1.00
46490;DHT22;32204;49.160;8.580;2022-07-25T03:46:50;22.40;1.00
46490;DHT22;32204;49.160;8.580;2022-07-25T03:49:16;22.50;1.00
46490;DHT22;32204;49.160;8.580;2022-07-25T03:51:42;22.60;1.00
46490;DHT22;32204;49.160;8.580;2022-07-25T03:54:07;22.40;1.00
46490;DHT22;32204;49.160;8.580;2022-07-25T03:56:45;22.10;1.00
46490;DHT22;32204;49.160;8.580;2022-07-25T03:59:13;21.90;1.00
46490;DHT22;32204;49.160;8.580;2022-07-25T04:01:40;21.80;1.00
46490;DHT22;32204;49.160;8.580;2022-07-25T04:04:06;21.80;1.00
46490;DHT22;32204;49.160;8.580;2022-07-25T04:06:32;21.80;1.00
46490;DHT22;32204;49.160;8.580;2022-07-25T04:08:58;22.00;29.70
46490;DHT22;32204;49.160;8.580;2022-07-25T04:11:24;22.00;1.00
46490;DHT22;32204;49.160;8.580;2022-07-25T04:13:50;22.20;1.00
46490;DHT22;32204;49.160;8.580;2022-07-25T04:16:16;22.30;1.00
46490;DHT22;32204;49.160;8.580;2022-07-25T04:18:42;22.30;1.00
46490;DHT22;32204;49.160;8.580;2022-07-25T04:21:08;22.30;1.00
46490;DHT22;32204;49.160;8.580;2022-07-25T04:23:34;22.40;1.00
46490;DHT22;32204;49.160;8.580;2022-07-25T04:26:00;22.50;1.00
46490;DHT22;32204;49.160;8.580;2022-07-25T04:28:25;22.40;1.00
46490;DHT22;32204;49.160;8.580;2022-07-25T04:30:51;22.40;1.00
46490;DHT22;32204;49.160;8.580;2022-07-25T04:33:17;22.50;1.00
46490;DHT22;32204;49.160;8.580;2022-07-25T04:35:43;22.40;1.00
46490;DHT22;32204;49.160;8.580;2022-07-25T04:38:09;22.20;29.00
46490;DHT22;32204;49.160;8.580;2022-07-25T04:40:35;22.30;39.40
46490;DHT22;32204;49.160;8.580;2022-07-25T04:43:02;22.40;1.00
46490;DHT22;32204;49.160;8.580;2022-07-25T04:45:27;22.40;42.70
46490;DHT22;32204;49.160;8.580;2022-07-25T04:47:53;22.50;23.10
46490;DHT22;32204;49.160;8.580;2022-07-25T04:50:19;22.50;11.40
46490;DHT22;32204;49.160;8.580;2022-07-25T04:52:44;22.40;11.60
46490;DHT22;32204;49.160;8.580;2022-07-25T04:55:10;22.20;37.40
46490;DHT22;32204;49.160;8.580;2022-07-25T04:57:36;22.20;63.10
46490;DHT22;32204;49.160;8.580;2022-07-25T05:00:04;22.00;99.90
46490;DHT22;32204;49.160;8.580;2022-07-25T05:02:30;22.00;99.90
46490;DHT22;32204;49.160;8.580;2022-07-25T05:04:56;22.60;65.70
46490;DHT22;32204;49.160;8.580;2022-07-25T05:07:21;24.20;1.00
46490;DHT22;32204;49.160;8.580;2022-07-25T05:09:47;25.10;99.90
46490;DHT22;32204;49.160;8.580;2022-07-25T05:12:13;26.00;99.90
46490;DHT22;32204;49.160;8.580;2022-07-25T05:14:38;26.80;1.00
46490;DHT22;32204;49.160;8.580;2022-07-25T05:17:04;27.80;99.90
46490;DHT22;32204;49.160;8.580;2022-07-25T05:19:30;28.70;99.90
46490;DHT22;32204;49.160;8.580;2022-07-25T05:21:56;29.00;58.60
46490;DHT22;32204;49.160;8.580;2022-07-25T05:24:22;29.50;99.90
46490;DHT22;32204;49.160;8.580;2022-07-25T05:26:48;30.10;99.90
46490;DHT22;32204;49.160;8.580;2022-07-25T05:29:14;31.10;1.00
46490;DHT22;32204;49.160;8.580;2022-07-25T05:31:40;31.70;99.90
46490;DHT22;32204;49.160;8.580;2022-07-25T05:34:06;32.10;1.00
46490;DHT22;32204;49.160;8.580;2022-07-25T05:36:31;32.60;99.90
46490;DHT22;32204;49.160;8.580;2022-07-25T05:38:57;33.10;70.40
46490;DHT22;32204;49.160;8.580;2022-07-25T05:41:23;33.60;1.00
46490;DHT22;32204;49.160;8.580;2022-07-25T05:43:49;34.10;1.00
46490;DHT22;32204;49.160;8.580;2022-07-25T05:46:15;34.20;99.90
46490;DHT22;32204;49.160;8.580;2022-07-25T05:48:41;34.80;99.90
46490;DHT22;32204;49.160;8.580;2022-07-25T05:51:07;35.30;99.90
46490;DHT22;32204;49.160;8.580;2022-07-25T05:53:39;35.70;99.90
46490;DHT22;32204;49.160;8.580;2022-07-25T05:56:05;36.10;76.90
46490;DHT22;32204;49.160;8.580;2022-07-25T05:58:31;36.40;5.40
46490;DHT22;32204;49.160;8.580;2022-07-25T06:00:57;37.00;1.00
46490;DHT22;32204;49.160;8.580;2022-07-25T06:03:23;36.70;1.00
46490;DHT22;32204;49.160;8.580;2022-07-25T06:05:49;37.20;1.00
46490;DHT22;32204;49.160;8.580;2022-07-25T06:08:14;37.30;1.00
46490;DHT22;32204;49.160;8.580;2022-07-25T06:10:41;37.40;1.00
46490;DHT22;32204;49.160;8.580;2022-07-25T06:13:07;37.60;99.90
46490;DHT22;32204;49.160;8.580;2022-07-25T06:15:33;37.60;99.90
46490;DHT22;32204;49.160;8.580;2022-07-25T06:17:59;37.90;99.90
46490;DHT22;32204;49.160;8.580;2022-07-25T06:20:25;37.90;99.90
46490;DHT22;32204;49.160;8.580;2022-07-25T06:22:51;37.90;99.90
46490;DHT22;32204;49.160;8.580;2022-07-25T06:25:16;38.00;99.90
46490;DHT22;32204;49.160;8.580;2022-07-25T06:27:42;37.60;99.90
46490;DHT22;32204;49.160;8.580;2022-07-25T06:30:08;37.70;99.90
46490;DHT22;32204;49.160;8.580;2022-07-25T06:32:35;38.00;99.90
46490;DHT22;32204;49.160;8.580;2022-07-25T06:35:01;37.70;99.90
46490;DHT22;32204;49.160;8.580;2022-07-25T06:37:26;37.70;99.90
46490;DHT22;32204;49.160;8.580;2022-07-25T06:39:52;37.70;99.90
46490;DHT22;32204;49.160;8.580;2022-07-25T06:42:18;37.80;99.90
46490;DHT22;32204;49.160;8.580;2022-07-25T06:44:44;38.30;99.90
46490;DHT22;32204;49.160;8.580;2022-07-25T06:47:09;39.00;99.90
46490;DHT22;32204;49.160;8.580;2022-07-25T06:49:41;38.50;99.90
46490;DHT22;32204;49.160;8.580;2022-07-25T06:52:06;36.10;99.90
46490;DHT22;32204;49.160;8.580;2022-07-25T06:54:32;35.60;99.90
46490;DHT22;32204;49.160;8.580;2022-07-25T06:56:58;36.70;99.90
46490;DHT22;32204;49.160;8.580;2022-07-25T06:59:24;36.80;99.90
46490;DHT22;32204;49.160;8.580;2022-07-25T07:01:50;37.70;99.90
46490;DHT22;32204;49.160;8.580;2022-07-25T07:04:16;38.00;99.90
46490;DHT22;32204;49.160;8.580;2022-07-25T07:06:42;38.30;99.90
46490;DHT22;32204;49.160;8.580;2022-07-25T07:09:08;38.90;99.90
46490;DHT22;32204;49.160;8.580;2022-07-25T07:11:34;39.10;99.90
46490;DHT22;32204;49.160;8.580;2022-07-25T07:14:01;39.80;99.90
46490;DHT22;32204;49.160;8.580;2022-07-25T07:16:28;39.70;99.90
46490;DHT22;32204;49.160;8.580;2022-07-25T07:18:54;39.10;99.90
46490;DHT22;32204;49.160;8.580;2022-07-25T07:21:20;38.00;99.90
46490;DHT22;32204;49.160;8.580;2022-07-25T07:23:45;36.90;99.90
46490;DHT22;32204;49.160;8.580;2022-07-25T07:26:11;35.50;99.90
46490;DHT22;32204;49.160;8.580;2022-07-25T07:28:37;34.30;99.90
46490;DHT22;32204;49.160;8.580;2022-07-25T07:31:02;33.60;99.90
46490;DHT22;32204;49.160;8.580;2022-07-25T07:33:28;32.60;99.90
46490;DHT22;32204;49.160;8.580;2022-07-25T07:35:54;32.00;99.90
46490;DHT22;32204;49.160;8.580;2022-07-25T07:38:23;31.50;99.90
46490;DHT22;32204;49.160;8.580;2022-07-25T07:40:48;31.40;99.90
46490;DHT22;32204;49.160;8.580;2022-07-25T07:43:18;31.20;99.90
46490;DHT22;32204;49.160;8.580;2022-07-25T07:45:45;31.20;99.90
46490;DHT22;32204;49.160;8.580;2022-07-25T07:48:11;31.10;99.90
46490;DHT22;32204;49.160;8.580;2022-07-25T07:50:37;31.00;99.90
46490;DHT22;32204;49.160;8.580;2022-07-25T07:53:02;30.70;99.90
46490;DHT22;32204;49.160;8.580;2022-07-25T07:55:28;30.70;99.90
46490;DHT22;32204;49.160;8.580;2022-07-25T07:58:15;30.70;1.00
46490;DHT22;32204;49.160;8.580;2022-07-25T08:00:42;30.90;1.00
46490;DHT22;32204;49.160;8.580;2022-07-25T08:03:09;31.00;1.00
46490;DHT22;32204;49.160;8.580;2022-07-25T08:05:44;30.80;1.00
46490;DHT22;32204;49.160;8.580;2022-07-25T08:08:12;31.00;1.00
46490;DHT22;32204;49.160;8.580;2022-07-25T08:10:42;31.30;13.40
46490;DHT22;32204;49.160;8.580;2022-07-25T08:13:16;31.20;23.10
46490;DHT22;32204;49.160;8.580;2022-07-25T08:15:43;31.40;36.40
46490;DHT22;32204;49.160;8.580;2022-07-25T08:18:09;31.60;8.10
46490;DHT22;32204;49.160;8.580;2022-07-25T08:20:35;31.50;44.10
46490;DHT22;32204;49.160;8.580;2022-07-25T08:23:01;31.60;11.30
46490;DHT22;32204;49.160;8.580;2022-07-25T08:25:28;31.80;15.80
46490;DHT22;32204;49.160;8.580;2022-07-25T08:27:53;31.90;5.60
46490;DHT22;32204;49.160;8.580;2022-07-25T08:30:19;31.70;1.00
46490;DHT22;32204;49.160;8.580;2022-07-25T08:32:49;31.40;1.00
46490;DHT22;32204;49.160;8.580;2022-07-25T08:35:17;31.40;1.00
46490;DHT22;32204;49.160;8.580;2022-07-25T08:37:43;31.20;1.00
46490;DHT22;32204;49.160;8.580;2022-07-25T08:40:11;31.30;8.30
46490;DHT22;32204;49.160;8.580;2022-07-25T08:42:36;31.50;28.10
46490;DHT22;32204;49.160;8.580;2022-07-25T08:45:04;31.20;16.20
46490;DHT22;32204;49.160;8.580;2022-07-25T08:47:31;31.00;29.40
46490;DHT22;32204;49.160;8.580;2022-07-25T08:49:57;31.20;61.60
46490;DHT22;32204;49.160;8.580;2022-07-25T08:52:23;31.30;89.70
46490;DHT22;32204;49.160;8.580;2022-07-25T08:54:51;31.50;99.30
46490;DHT22;32204;49.160;8.580;2022-07-25T08:57:17;31.50;99.00
46490;DHT22;32204;49.160;8.580;2022-07-25T08:59:43;31.60;88.50
46490;DHT22;32204;49.160;8.580;2022-07-25T09:02:14;31.70;84.70
46490;DHT22;32204;49.160;8.580;2022-07-25T09:04:40;31.80;66.70
46490;DHT22;32204;49.160;8.580;2022-07-25T09:07:08;31.80;33.70
46490;DHT22;32204;49.160;8.580;2022-07-25T09:09:36;31.80;13.00
46490;DHT22;32204;49.160;8.580;2022-07-25T09:12:03;31.80;1.00
46490;DHT22;32204;49.160;8.580;2022-07-25T09:14:29;31.70;20.30
46490;DHT22;32204;49.160;8.580;2022-07-25T09:16:56;32.00;24.60
46490;DHT22;32204;49.160;8.580;2022-07-25T09:19:23;31.90;1.00
46490;DHT22;32204;49.160;8.580;2022-07-25T09:22:01;32.10;1.00
46490;DHT22;32204;49.160;8.580;2022-07-25T09:24:27;32.10;1.00
46490;DHT22;32204;49.160;8.580;2022-07-25T09:26:56;32.30;1.00
46490;DHT22;32204;49.160;8.580;2022-07-25T09:29:25;32.50;1.00
46490;DHT22;32204;49.160;8.580;2022-07-25T09:31:52;32.80;1.00
46490;DHT22;32204;49.160;8.580;2022-07-25T09:37:02;33.10;1.00
46490;DHT22;32204;49.160;8.580;2022-07-25T09:39:35;32.90;1.00
46490;DHT22;32204;49.160;8.580;2022-07-25T09:42:01;32.90;1.00
46490;DHT22;32204;49.160;8.580;2022-07-25T09:44:27;33.00;1.00
46490;DHT22;32204;49.160;8.580;2022-07-25T09:46:56;33.00;1.00
46490;DHT22;32204;49.160;8.580;2022-07-25T09:49:25;33.00;1.00
46490;DHT22;32204;49.160;8.580;2022-07-25T09:52:01;32.90;1.00
46490;DHT22;32204;49.160;8.580;2022-07-25T09:54:28;33.00;1.00
46490;DHT22;32204;49.160;8.580;2022-07-25T09:56:54;33.00;1.00
46490;DHT22;32204;49.160;8.580;2022-07-25T09:59:20;33.00;1.00
46490;DHT22;32204;49.160;8.580;2022-07-25T10:01:54;33.10;1.00
46490;DHT22;32204;49.160;8.580;2022-07-25T10:07:07;33.20;1.00
46490;DHT22;32204;49.160;8.580;2022-07-25T10:09:41;33.30;1.00
46490;DHT22;32204;49.160;8.580;2022-07-25T10:12:12;33.30;1.00
46490;DHT22;32204;49.160;8.580;2022-07-25T10:14:39;33.40;1.00
46490;DHT22;32204;49.160;8.580;2022-07-25T10:17:05;33.70;1.00
46490;DHT22;32204;49.160;8.580;2022-07-25T10:19:39;33.90;1.00
46490;DHT22;32204;49.160;8.580;2022-07-25T10:22:08;33.90;99.90
46490;DHT22;32204;49.160;8.580;2022-07-25T10:24:35;34.00;99.90
46490;DHT22;32204;49.160;8.580;2022-07-25T10:27:10;34.10;99.90
46490;DHT22;32204;49.160;8.580;2022-07-25T10:29:38;34.10;99.90
46490;DHT22;32204;49.160;8.580;2022-07-25T10:32:08;34.30;99.90
46490;DHT22;32204;49.160;8.580;2022-07-25T10:34:35;34.10;99.90
46490;DHT22;32204;49.160;8.580;2022-07-25T10:37:15;33.70;99.90
46490;DHT22;32204;49.160;8.580;2022-07-25T10:39:44;33.50;99.90
46490;DHT22;32204;49.160;8.580;2022-07-25T10:42:15;33.30;99.90
46490;DHT22;32204;49.160;8.580;2022-07-25T10:44:48;33.30;99.90
46490;DHT22;32204;49.160;8.580;2022-07-25T10:47:15;33.30;99.90
46490;DHT22;32204;49.160;8.580;2022-07-25T10:49:45;33.40;99.90
46490;DHT22;32204;49.160;8.580;2022-07-25T10:52:15;33.70;99.90
46490;DHT22;32204;49.160;8.580;2022-07-25T10:55:02;33.90;99.90
46490;DHT22;32204;49.160;8.580;2022-07-25T10:57:28;33.90;99.90
46490;DHT22;32204;49.160;8.580;2022-07-25T11:00:06;33.60;99.90
46490;DHT22;32204;49.160;8.580;2022-07-25T11:02:32;33.70;99.90
46490;DHT22;32204;49.160;8.580;2022-07-25T11:05:00;33.70;99.90
46490;DHT22;32204;49.160;8.580;2022-07-25T11:07:28;33.70;99.90
46490;DHT22;32204;49.160;8.580;2022-07-25T11:10:02;33.70;99.90
46490;DHT22;32204;49.160;8.580;2022-07-25T11:12:28;33.70;99.90
46490;DHT22;32204;49.160;8.580;2022-07-25T11:15:06;33.60;99.90
46490;DHT22;32204;49.160;8.580;2022-07-25T11:17:32;33.40;99.90
46490;DHT22;32204;49.160;8.580;2022-07-25T11:22:29;33.40;99.90
46490;DHT22;32204;49.160;8.580;2022-07-25T11:24:56;33.40;99.90
46490;DHT22;32204;49.160;8.580;2022-07-25T11:27:31;33.30;99.90
46490;DHT22;32204;49.160;8.580;2022-07-25T11:30:14;33.30;99.90
46490;DHT22;32204;49.160;8.580;2022-07-25T11:32:46;33.40;99.90
46490;DHT22;32204;49.160;8.580;2022-07-25T11:35:14;33.60;99.90
46490;DHT22;32204;49.160;8.580;2022-07-25T11:37:42;33.60;99.90
46490;DHT22;32204;49.160;8.580;2022-07-25T11:40:09;33.60;99.90
46490;DHT22;32204;49.160;8.580;2022-07-25T11:42:55;33.60;99.90
46490;DHT22;32204;49.160;8.580;2022-07-25T11:45:29;33.60;99.90
46490;DHT22;32204;49.160;8.580;2022-07-25T11:48:05;33.50;99.90
46490;DHT22;32204;49.160;8.580;2022-07-25T11:50:34;33.40;99.90
46490;DHT22;32204;49.160;8.580;2022-07-25T11:53:03;33.30;99.90
46490;DHT22;32204;49.160;8.580;2022-07-25T11:55:30;33.20;99.90
46490;DHT22;32204;49.160;8.580;2022-07-25T11:57:59;33.30;99.90
46490;DHT22;32204;49.160;8.580;2022-07-25T12:00:25;33.50;99.90
46490;DHT22;32204;49.160;8.580;2022-07-25T12:02:50;33.50;99.90
46490;DHT22;32204;49.160;8.580;2022-07-25T12:05:19;33.90;99.90
46490;DHT22;32204;49.160;8.580;2022-07-25T12:07:46;34.30;99.90
46490;DHT22;32204;49.160;8.580;2022-07-25T12:10:32;34.50;99.90
46490;DHT22;32204;49.160;8.580;2022-07-25T12:12:58;34.70;99.90
46490;DHT22;32204;49.160;8.580;2022-07-25T12:15:40;35.00;99.90
46490;DHT22;32204;49.160;8.580;2022-07-25T12:18:07;35.20;99.90
46490;DHT22;32204;49.160;8.580;2022-07-25T12:20:38;35.10;99.90
46490;DHT22;32204;49.160;8.580;2022-07-25T12:23:06;35.10;99.90
46490;DHT22;32204;49.160;8.580;2022-07-25T12:25:36;34.90;99.90
46490;DHT22;32204;49.160;8.580;2022-07-25T12:28:03;34.70;99.90
46490;DHT22;32204;49.160;8.580;2022-07-25T12:30:30;34.90;99.90
46490;DHT22;32204;49.160;8.580;2022-07-25T12:32:57;34.90;99.90
46490;DHT22;32204;49.160;8.580;2022-07-25T12:35:23;35.00;99.90
46490;DHT22;32204;49.160;8.580;2022-07-25T12:37:50;35.10;99.90
46490;DHT22;32204;49.160;8.580;2022-07-25T12:40:16;35.10;99.90
46490;DHT22;32204;49.160;8.580;2022-07-25T12:42:43;35.10;99.90
46490;DHT22;32204;49.160;8.580;2022-07-25T12:45:09;35.30;99.90
46490;DHT22;32204;49.160;8.580;2022-07-25T12:47:35;35.40;99.90
46490;DHT22;32204;49.160;8.580;2022-07-25T12:50:01;35.50;99.90
46490;DHT22;32204;49.160;8.580;2022-07-25T12:52:27;35.30;99.90
46490;DHT22;32204;49.160;8.580;2022-07-25T12:54:53;35.40;99.90
46490;DHT22;32204;49.160;8.580;2022-07-25T12:57:19;35.20;99.90
46490;DHT22;32204;49.160;8.580;2022-07-25T12:59:47;35.30;99.90
46490;DHT22;32204;49.160;8.580;2022-07-25T13:02:13;35.50;99.90
46490;DHT22;32204;49.160;8.580;2022-07-25T13:04:38;35.20;99.90
46490;DHT22;32204;49.160;8.580;2022-07-25T13:07:04;34.90;99.90
46490;DHT22;32204;49.160;8.580;2022-07-25T13:09:30;34.80;99.90
46490;DHT22;32204;49.160;8.580;2022-07-25T13:11:56;34.90;99.90
46490;DHT22;32204;49.160;8.580;2022-07-25T13:14:21;34.90;99.90
46490;DHT22;32204;49.160;8.580;2022-07-25T13:16:47;34.90;99.90
46490;DHT22;32204;49.160;8.580;2022-07-25T13:19:14;35.00;99.90
46490;DHT22;32204;49.160;8.580;2022-07-25T13:21:41;34.80;99.90
46490;DHT22;32204;49.160;8.580;2022-07-25T13:24:07;34.60;99.90
46490;DHT22;32204;49.160;8.580;2022-07-25T13:26:33;34.50;99.90
46490;DHT22;32204;49.160;8.580;2022-07-25T13:29:00;34.40;99.90
46490;DHT22;32204;49.160;8.580;2022-07-25T13:31:26;34.40;99.90
46490;DHT22;32204;49.160;8.580;2022-07-25T13:33:52;34.40;99.90
46490;DHT22;32204;49.160;8.580;2022-07-25T13:36:18;34.30;99.90
46490;DHT22;32204;49.160;8.580;2022-07-25T13:38:44;34.50;99.90
46490;DHT22;32204;49.160;8.580;2022-07-25T13:41:12;34.60;99.90
46490;DHT22;32204;49.160;8.580;2022-07-25T13:43:37;34.70;99.90
46490;DHT22;32204;49.160;8.580;2022-07-25T13:46:04;34.70;99.90
46490;DHT22;32204;49.160;8.580;2022-07-25T13:48:30;34.60;99.90
46490;DHT22;32204;49.160;8.580;2022-07-25T13:50:56;34.60;99.90
46490;DHT22;32204;49.160;8.580;2022-07-25T13:53:22;34.60;99.90
46490;DHT22;32204;49.160;8.580;2022-07-25T13:55:48;34.50;99.90
46490;DHT22;32204;49.160;8.580;2022-07-25T13:58:13;34.50;99.90
46490;DHT22;32204;49.160;8.580;2022-07-25T14:00:39;34.90;99.90
46490;DHT22;32204;49.160;8.580;2022-07-25T14:03:05;35.00;99.90
46490;DHT22;32204;49.160;8.580;2022-07-25T14:05:31;34.90;99.90
46490;DHT22;32204;49.160;8.580;2022-07-25T14:07:58;34.70;99.90
46490;DHT22;32204;49.160;8.580;2022-07-25T14:10:24;34.70;99.90
46490;DHT22;32204;49.160;8.580;2022-07-25T14:12:50;34.50;99.90
46490;DHT22;32204;49.160;8.580;2022-07-25T14:15:15;34.50;99.90
46490;DHT22;32204;49.160;8.580;2022-07-25T14:17:42;34.40;99.90
46490;DHT22;32204;49.160;8.580;2022-07-25T14:20:08;34.50;99.90
46490;DHT22;32204;49.160;8.580;2022-07-25T14:22:34;34.20;99.90
46490;DHT22;32204;49.160;8.580;2022-07-25T14:24:59;34.10;99.90
46490;DHT22;32204;49.160;8.580;2022-07-25T14:27:26;34.10;99.90
46490;DHT22;32204;49.160;8.580;2022-07-25T14:29:51;33.80;99.90
46490;DHT22;32204;49.160;8.580;2022-07-25T14:32:18;33.80;99.90
46490;DHT22;32204;49.160;8.580;2022-07-25T14:34:44;33.70;99.90
46490;DHT22;32204;49.160;8.580;2022-07-25T14:37:10;34.00;99.90
46490;DHT22;32204;49.160;8.580;2022-07-25T14:39:36;34.10;99.90
46490;DHT22;32204;49.160;8.580;2022-07-25T14:42:02;34.20;99.90
46490;DHT22;32204;49.160;8.580;2022-07-25T14:44:27;34.30;99.90
46490;DHT22;32204;49.160;8.580;2022-07-25T14:46:54;34.30;99.90
46490;DHT22;32204;49.160;8.580;2022-07-25T14:49:21;34.30;99.90
46490;DHT22;32204;49.160;8.580;2022-07-25T14:51:47;34.00;99.90
46490;DHT22;32204;49.160;8.580;2022-07-25T14:54:14;33.80;99.90
46490;DHT22;32204;49.160;8.580;2022-07-25T14:56:42;33.60;99.90
46490;DHT22;32204;49.160;8.580;2022-07-25T14:59:08;33.60;99.90
46490;DHT22;32204;49.160;8.580;2022-07-25T15:01:35;33.70;99.90
46490;DHT22;32204;49.160;8.580;2022-07-25T15:04:00;33.80;99.90
46490;DHT22;32204;49.160;8.580;2022-07-25T15:06:26;33.90;99.90
46490;DHT22;32204;49.160;8.580;2022-07-25T15:08:52;34.00;99.90
46490;DHT22;32204;49.160;8.580;2022-07-25T15:11:18;34.00;99.90
46490;DHT22;32204;49.160;8.580;2022-07-25T15:13:45;34.10;99.90
46490;DHT22;32204;49.160;8.580;2022-07-25T15:16:12;33.90;99.90
46490;DHT22;32204;49.160;8.580;2022-07-25T15:18:38;33.80;99.90
46490;DHT22;32204;49.160;8.580;2022-07-25T15:21:04;33.40;99.90
46490;DHT22;32204;49.160;8.580;2022-07-25T15:23:30;33.50;99.90
46490;DHT22;32204;49.160;8.580;2022-07-25T15:25:57;33.70;99.90
46490;DHT22;32204;49.160;8.580;2022-07-25T15:28:23;33.80;99.90
46490;DHT22;32204;49.160;8.580;2022-07-25T15:30:48;33.80;99.90
46490;DHT22;32204;49.160;8.580;2022-07-25T15:33:16;33.70;99.90
46490;DHT22;32204;49.160;8.580;2022-07-25T15:35:46;33.60;99.90
46490;DHT22;32204;49.160;8.580;2022-07-25T15:38:13;33.50;99.90
46490;DHT22;32204;49.160;8.580;2022-07-25T15:40:40;33.30;99.90